Ayer, MA

10:06 AM EST on December 18, 2014 (GMT -0500)
Ayer Center | Change Station
CLOSE
Current Station
Personal Weather Station
Location: Ayer, MA
Elevation: 230 ft
Nearby Weather Stations

Elev 230 ft 42.56 °N, 71.59 °W | Updated 1 second ago

Mostly Cloudy
Mostly Cloudy
39.9 °F
Feels Like 40 °F
N
2.5
Wind Variable Wind from WNW
Gusts 4.9 mph

Today
High -- | Low -- °F
--% Chance of Precip.
Yesterday
High -- | Low -- °F
Precip. -- in
7:11 AM 4:14 PM
Waning Crescent, 14% visible
Pressure 29.81 in
Visibility 10.0 miles
Clouds Few 3300 ft
Windchill 40 °F
Dew Point 32 °F
Humidity 73%
Rainfall 0.00 in
Snow Depth Not available.
UV 1 out of 12
Pollen .10 out of 12
Air Quality Not available.
Flu Activity Not available.
METAR KFIT 181452Z AUTO 30011G20KT 10SM FEW033 04/M02 A2980 RMK AO2 SLP094 60000 T00391022 53015

More Conditions Fewer Conditions

Pressure 29.81 in
Visibility 10.0 miles
Clouds Few 3300 ft
Windchill 40 °F
Dew Point 32 °F
Humidity 73%
Rainfall 0.00 in
Snow Depth Not available.
UV 1 out of 12
Pollen .10 out of 12
Air Quality Not available.
Flu Activity Not available.
METAR KFIT 181452Z AUTO 30011G20KT 10SM FEW033 04/M02 A2980 RMK AO2 SLP094 60000 T00391022 53015

More Conditions Fewer Conditions

10-Day Weather Forecast

Almanac

Astronomy

Dec. 18, 2014 Rise Set
Actual Time
Civil Twilight
Nautical Twilight
Astronomical Twilight
Moon
Length of Visible Light
Length of Day
Tomorrow will be .
, % of the Moon is Illuminated

Today's Extremes

State Highs State Lows

Community

WunderPhotos

Upload Photos

1,778,937 photos uploaded!

WunderBlogs® & News

Nearby

Air Quality

  Air Quality AQ Index Pollutant
Not available.

Snow Depth

Station Depth Elevation

Earthquake Activity

City Distance Mag. Time & Date
Minimum magnitude displayed is 2.5.

Coastal Water Temperatures

Place Temperature

Nearby Weather Stations